Time;durP1;ratioP1;P1;durP2;ratioP2;P2;SDS_P1;SDS_P2;PMS_P1;PMS_P2;Temp;Humidity;BMP_temperature;BMP_pressure;BME280_temperature;BME280_humidity;BME280_pressure;Samples;Min_cycle;Max_cycle;Signal;HPM_P1;HPM_P2
2023/10/24 05:11:49;;;;;;;3.40;2.00;;;;;;;;;;5082730;28;20419;-83
2023/10/24 05:14:14;;;;;;;4.75;1.30;;;;;;;;;;5087318;28;20064;-84
2023/10/24 05:16:40;;;;;;;0.68;0.55;;;;;;;;;;5085318;28;20201;-81
2023/10/24 05:19:05;;;;;;;0.93;0.60;;;;;;;;;;5085109;28;20472;-83
2023/10/24 05:21:34;;;;;;;3.60;1.20;;;;;;;;;;5088514;28;20043;-84
2023/10/24 05:23:59;;;;;;;6.30;1.58;;;;;;;;;;5085450;28;20027;-83
2023/10/24 05:26:24;;;;;;;2.58;1.35;;;;;;;;;;5083025;28;20035;-85
2023/10/24 05:28:50;;;;;;;7.38;1.48;;;;;;;;;;5084922;28;20060;-85
2023/10/24 05:31:16;;;;;;;0.57;0.40;;;;;;;;;;5086132;28;20115;-83
2023/10/24 05:33:41;;;;;;;1.33;1.00;;;;;;;;;;5084692;28;20062;-84
2023/10/24 05:36:07;;;;;;;1.67;1.33;;;;;;;;;;5085811;28;20078;-84
2023/10/24 05:38:35;;;;;;;2.25;0.88;;;;;;;;;;5084842;28;20028;-83
2023/10/24 05:41:00;;;;;;;10.82;1.10;;;;;;;;;;5088043;28;20059;-82
2023/10/24 05:43:26;;;;;;;1.25;0.80;;;;;;;;;;5086091;28;20064;-82
2023/10/24 05:45:51;;;;;;;2.88;0.77;;;;;;;;;;5084027;28;20030;-82
2023/10/24 05:48:17;;;;;;;2.28;1.63;;;;;;;;;;5085986;28;20143;-84
2023/10/24 05:50:46;;;;;;;10.30;1.48;;;;;;;;;;5085190;28;20028;-82
2023/10/24 05:53:11;;;;;;;2.35;1.75;;;;;;;;;;5087697;28;20031;-81
2023/10/24 05:55:39;;;;;;;2.25;1.52;;;;;;;;;;5086095;28;20531;-81
2023/10/24 05:58:05;;;;;;;7.10;1.00;;;;;;;;;;5080391;28;20023;-81
2023/10/24 06:00:30;;;;;;;1.85;1.48;;;;;;;;;;5080267;28;20119;-82
2023/10/24 06:02:55;;;;;;;1.58;1.05;;;;;;;;;;5084383;28;20081;-83
2023/10/24 06:05:21;;;;;;;6.05;0.90;;;;;;;;;;5082727;28;20433;-84
2023/10/24 06:07:46;;;;;;;12.60;2.15;;;;;;;;;;5078307;28;20076;-84
2023/10/24 06:10:11;;;;;;;1.05;0.95;;;;;;;;;;5073545;28;20049;-82
2023/10/24 06:12:37;;;;;;;1.60;1.50;;;;;;;;;;5060497;28;20373;-83
2023/10/24 06:15:04;;;;;;;1.40;1.15;;;;;;;;;;5060080;28;20077;-82
2023/10/24 06:17:30;;;;;;;1.15;1.02;;;;;;;;;;5061265;28;20036;-83
2023/10/24 06:19:55;;;;;;;2.63;1.40;;;;;;;;;;5058632;28;20402;-82
2023/10/24 06:22:21;;;;;;;2.15;1.50;;;;;;;;;;5053257;28;20032;-84
2023/10/24 06:24:46;;;;;;;2.83;1.27;;;;;;;;;;5053105;28;20017;-80
2023/10/24 06:27:13;;;;;;;5.80;2.00;;;;;;;;;;5051902;28;20040;-84
2023/10/24 06:29:39;;;;;;;6.07;1.05;;;;;;;;;;5052760;28;20017;-83
2023/10/24 06:32:05;;;;;;;1.00;0.65;;;;;;;;;;5050891;28;20035;-84
2023/10/24 06:34:30;;;;;;;6.38;2.17;;;;;;;;;;5051736;28;20469;-84
2023/10/24 06:36:56;;;;;;;11.45;1.33;;;;;;;;;;5051203;28;20029;-84
2023/10/24 06:39:21;;;;;;;3.10;2.08;;;;;;;;;;5049125;28;20088;-83
2023/10/24 06:41:47;;;;;;;5.38;2.10;;;;;;;;;;5051865;28;20021;-83
2023/10/24 06:44:12;;;;;;;2.30;1.58;;;;;;;;;;5053777;28;20385;-84
2023/10/24 06:46:38;;;;;;;1.80;1.25;;;;;;;;;;5050199;28;20061;-85
2023/10/24 06:49:03;;;;;;;2.38;1.83;;;;;;;;;;5052324;28;20452;-84
2023/10/24 06:51:29;;;;;;;11.20;2.42;;;;;;;;;;5050454;28;20528;-86
2023/10/24 06:53:58;;;;;;;2.35;2.05;;;;;;;;;;5053745;28;20033;-85
2023/10/24 06:56:23;;;;;;;5.87;1.93;;;;;;;;;;5053938;28;20565;-85
2023/10/24 06:58:48;;;;;;;2.97;1.50;;;;;;;;;;5053556;28;20357;-85
2023/10/24 07:01:14;;;;;;;3.13;1.80;;;;;;;;;;5051331;28;20028;-86
2023/10/24 07:03:39;;;;;;;5.25;3.05;;;;;;;;;;5053007;28;20487;-85
2023/10/24 07:06:05;;;;;;;15.82;2.90;;;;;;;;;;5048733;28;20025;-85
2023/10/24 07:08:30;;;;;;;9.27;2.45;;;;;;;;;;5052600;28;20025;-85
2023/10/24 07:10:56;;;;;;;2.92;2.40;;;;;;;;;;5065931;28;20048;-85
2023/10/24 07:13:21;;;;;;;6.13;2.83;;;;;;;;;;5073021;28;20024;-85
2023/10/24 07:15:47;;;;;;;4.68;2.47;;;;;;;;;;5071520;28;20024;-85
2023/10/24 07:18:13;;;;;;;3.08;2.30;;;;;;;;;;5071490;28;20027;-86
2023/10/24 07:20:39;;;;;;;5.78;2.90;;;;;;;;;;5069669;28;20024;-85
2023/10/24 07:23:05;;;;;;;4.53;3.22;;;;;;;;;;5073343;28;20032;-85
2023/10/24 07:25:31;;;;;;;5.70;3.08;;;;;;;;;;5067652;28;20114;-85
2023/10/24 07:27:57;;;;;;;4.90;2.53;;;;;;;;;;5071643;28;20101;-86
2023/10/24 07:30:24;;;;;;;6.85;3.55;;;;;;;;;;5068455;28;20024;-85
2023/10/24 07:32:50;;;;;;;6.65;3.05;;;;;;;;;;5069479;28;20075;-86
2023/10/24 07:35:15;;;;;;;12.70;3.78;;;;;;;;;;5070470;28;20024;-85
2023/10/24 07:37:41;;;;;;;2.67;2.20;;;;;;;;;;5071095;28;20499;-86
2023/10/24 07:40:07;;;;;;;7.68;3.60;;;;;;;;;;5068327;28;20491;-85
2023/10/24 07:42:32;;;;;;;11.88;2.88;;;;;;;;;;5071430;28;20427;-86
2023/10/24 07:44:58;;;;;;;6.68;3.22;;;;;;;;;;5072799;28;20082;-86
2023/10/24 07:47:26;;;;;;;3.90;2.58;;;;;;;;;;5071957;28;20085;-86
2023/10/24 07:49:53;;;;;;;5.07;2.83;;;;;;;;;;5067768;28;20025;-87
2023/10/24 07:52:19;;;;;;;6.28;2.92;;;;;;;;;;5072283;28;20016;-87
2023/10/24 07:54:45;;;;;;;6.15;3.85;;;;;;;;;;5069728;28;20031;-87
2023/10/24 07:57:12;;;;;;;6.20;3.20;;;;;;;;;;5069696;28;20032;-87
2023/10/24 07:59:37;;;;;;;10.13;3.50;;;;;;;;;;5068944;28;20109;-86
2023/10/24 08:02:02;;;;;;;16.80;3.58;;;;;;;;;;5070597;28;20129;-87
2023/10/24 08:04:28;;;;;;;7.68;3.30;;;;;;;;;;5070274;28;20036;-86
2023/10/24 08:06:53;;;;;;;6.63;3.17;;;;;;;;;;5071556;28;20146;-86
2023/10/24 08:09:19;;;;;;;8.85;4.32;;;;;;;;;;5069202;28;20035;-85
2023/10/24 08:11:44;;;;;;;6.25;3.00;;;;;;;;;;5090779;28;20375;-85
2023/10/24 08:14:10;;;;;;;6.55;2.90;;;;;;;;;;5071313;28;20483;-84
2023/10/24 08:16:35;;;;;;;7.43;2.85;;;;;;;;;;5072304;28;20016;-84
2023/10/24 08:19:02;;;;;;;4.50;2.05;;;;;;;;;;5071630;28;20464;-84
2023/10/24 08:21:27;;;;;;;2.53;2.08;;;;;;;;;;5090309;28;20081;-85
2023/10/24 08:23:54;;;;;;;3.08;2.05;;;;;;;;;;5090715;28;20464;-84
2023/10/24 08:26:20;;;;;;;12.95;2.63;;;;;;;;;;5071476;28;20506;-85
2023/10/24 08:28:45;;;;;;;6.60;2.85;;;;;;;;;;5089185;28;20054;-86
2023/10/24 08:31:11;;;;;;;4.35;2.10;;;;;;;;;;5088939;28;20048;-84
2023/10/24 08:33:36;;;;;;;14.82;3.40;;;;;;;;;;5088717;28;20111;-84
2023/10/24 08:36:01;;;;;;;5.93;2.58;;;;;;;;;;5073016;28;20034;-85
2023/10/24 08:38:27;;;;;;;4.03;2.22;;;;;;;;;;5071788;28;20112;-85
2023/10/24 08:40:52;;;;;;;6.72;2.25;;;;;;;;;;5091220;28;20024;-85
2023/10/24 08:43:20;;;;;;;3.35;2.25;;;;;;;;;;5088083;28;20020;-85
2023/10/24 08:45:48;;;;;;;3.45;2.03;;;;;;;;;;5089719;28;20494;-85
2023/10/24 08:48:15;;;;;;;3.55;1.80;;;;;;;;;;5071177;28;20384;-84
2023/10/24 08:50:44;;;;;;;4.35;2.53;;;;;;;;;;5090794;28;20024;-86
2023/10/24 08:53:14;;;;;;;4.30;2.67;;;;;;;;;;5072718;28;20028;-86
2023/10/24 08:55:46;;;;;;;7.03;3.15;;;;;;;;;;5069917;28;20028;-85
2023/10/24 08:58:14;;;;;;;2.90;1.90;;;;;;;;;;5089900;28;20032;-85
2023/10/24 09:00:42;;;;;;;3.33;1.67;;;;;;;;;;5088836;28;20863;-84
2023/10/24 09:03:07;;;;;;;3.75;1.95;;;;;;;;;;5089172;28;20031;-83
2023/10/24 09:05:33;;;;;;;3.22;1.88;;;;;;;;;;5072927;28;20028;-83
2023/10/24 09:07:59;;;;;;;3.78;2.00;;;;;;;;;;5090417;28;20379;-83
2023/10/24 09:10:24;;;;;;;2.97;1.73;;;;;;;;;;5068379;28;20686;-84
2023/10/24 09:12:54;;;;;;;4.47;2.05;;;;;;;;;;5070231;28;20100;-85
2023/10/24 09:15:19;;;;;;;1.50;1.40;;;;;;;;;;5067578;28;20362;-85
2023/10/24 09:17:46;;;;;;;5.05;1.48;;;;;;;;;;5068671;28;20058;-84
2023/10/24 09:20:11;;;;;;;3.28;1.35;;;;;;;;;;5069121;28;20039;-85
2023/10/24 09:22:40;;;;;;;2.70;1.92;;;;;;;;;;5068258;28;20024;-84
2023/10/24 09:25:08;;;;;;;3.88;1.67;;;;;;;;;;5069068;28;20034;-85
2023/10/24 09:27:33;;;;;;;2.90;1.33;;;;;;;;;;5065391;28;20040;-85
2023/10/24 09:30:07;;;;;;;11.90;2.10;;;;;;;;;;5067935;28;20020;-84
2023/10/24 09:32:33;;;;;;;1.23;0.90;;;;;;;;;;5067101;28;20033;-85
2023/10/24 09:35:03;;;;;;;2.60;1.58;;;;;;;;;;5066953;28;20028;-85
2023/10/24 09:37:28;;;;;;;5.43;1.60;;;;;;;;;;5068054;28;20060;-85
2023/10/24 09:39:59;;;;;;;3.35;1.50;;;;;;;;;;5068441;28;20064;-85
2023/10/24 09:42:29;;;;;;;3.72;1.25;;;;;;;;;;5073495;28;20071;-85
2023/10/24 09:44:57;;;;;;;1.60;1.20;;;;;;;;;;5070089;28;20086;-83
2023/10/24 09:47:23;;;;;;;1.88;1.23;;;;;;;;;;5070173;28;20032;-84
2023/10/24 09:49:59;;;;;;;6.55;2.33;;;;;;;;;;5071945;28;20028;-88
2023/10/24 09:52:28;;;;;;;2.45;1.27;;;;;;;;;;5077623;28;20032;-86
2023/10/24 09:54:55;;;;;;;6.30;1.52;;;;;;;;;;5064675;28;20589;-85
2023/10/24 09:57:22;;;;;;;1.92;1.25;;;;;;;;;;5073458;28;20025;-87
2023/10/24 09:59:49;;;;;;;4.50;1.10;;;;;;;;;;5079841;28;20040;-86
2023/10/24 10:02:16;;;;;;;3.20;1.50;;;;;;;;;;5072139;28;20080;-87
2023/10/24 10:04:42;;;;;;;4.30;1.60;;;;;;;;;;5071234;28;20020;-84
2023/10/24 10:07:10;;;;;;;7.63;1.48;;;;;;;;;;5071188;28;20028;-85
2023/10/24 10:09:39;;;;;;;8.63;1.77;;;;;;;;;;5076225;28;20376;-86
2023/10/24 10:12:07;;;;;;;2.92;1.40;;;;;;;;;;5094836;28;20114;-85
2023/10/24 10:14:45;;;;;;;3.47;2.13;;;;;;;;;;5093914;28;20483;-85
2023/10/24 10:17:27;;;;;;;1.52;1.15;;;;;;;;;;5091409;28;20762;-84
2023/10/24 10:20:09;;;;;;;5.13;0.98;;;;;;;;;;5074741;28;21968;-86
2023/10/24 10:23:03;;;;;;;6.50;0.90;;;;;;;;;;5074386;28;20039;-85
2023/10/24 10:25:56;;;;;;;4.85;1.48;;;;;;;;;;5074364;28;20035;-85
2023/10/24 10:28:31;;;;;;;5.47;1.60;;;;;;;;;;5074246;28;20064;-85
2023/10/24 10:31:17;;;;;;;1.02;0.90;;;;;;;;;;5092749;28;20020;-82
2023/10/24 10:33:43;;;;;;;3.17;1.30;;;;;;;;;;5073946;28;20036;-82
2023/10/24 10:36:09;;;;;;;5.97;1.90;;;;;;;;;;5094375;28;20079;-82
2023/10/24 10:38:44;;;;;;;3.30;1.70;;;;;;;;;;5074929;28;20031;-86
2023/10/24 10:41:22;;;;;;;1.20;1.10;;;;;;;;;;5075019;28;20055;-84
2023/10/24 10:43:55;;;;;;;2.10;1.05;;;;;;;;;;5075640;28;20403;-85
2023/10/24 10:46:25;;;;;;;1.70;1.38;;;;;;;;;;5075228;28;20028;-86
2023/10/24 10:48:51;;;;;;;1.02;0.77;;;;;;;;;;5074546;28;20052;-86
2023/10/24 10:51:22;;;;;;;3.50;1.63;;;;;;;;;;5091635;28;20122;-85
2023/10/24 10:53:53;;;;;;;6.32;2.08;;;;;;;;;;5091324;28;20034;-84
2023/10/24 10:56:23;;;;;;;3.72;1.55;;;;;;;;;;5091723;28;20024;-84
2023/10/24 10:58:59;;;;;;;7.32;1.92;;;;;;;;;;5091420;28;20035;-85
2023/10/24 11:01:58;;;;;;;10.00;1.98;;;;;;;;;;5091870;28;20514;-86
2023/10/24 11:04:24;;;;;;;;;;;;;;;;;;5071728;28;20038;-85
2023/10/24 11:06:54;;;;;;;5.20;1.70;;;;;;;;;;5093478;28;19912;-86
2023/10/24 11:09:21;;;;;;;5.97;1.67;;;;;;;;;;5088545;28;20024;-86
2023/10/24 11:12:19;;;;;;;4.07;1.33;;;;;;;;;;5074812;28;20023;-86
2023/10/24 11:15:03;;;;;;;2.80;1.58;;;;;;;;;;5064620;28;20518;-85
2023/10/24 11:17:28;;;;;;;5.45;2.55;;;;;;;;;;5092191;28;20110;-85
2023/10/24 11:19:54;;;;;;;2.30;1.40;;;;;;;;;;5091553;28;20042;-86
2023/10/24 11:22:19;;;;;;;3.35;1.58;;;;;;;;;;5072423;28;20032;-85
2023/10/24 11:24:45;;;;;;;3.00;1.60;;;;;;;;;;5096851;28;20063;-85
2023/10/24 11:27:11;;;;;;;4.57;0.85;;;;;;;;;;5076496;28;20167;-85
2023/10/24 11:29:37;;;;;;;2.38;1.10;;;;;;;;;;5078508;28;20471;-84
2023/10/24 11:32:02;;;;;;;4.32;1.83;;;;;;;;;;5075392;28;20024;-85
2023/10/24 11:34:28;;;;;;;1.77;0.98;;;;;;;;;;5092514;28;20047;-85
2023/10/24 11:36:53;;;;;;;6.22;0.90;;;;;;;;;;5090256;28;20112;-84
2023/10/24 11:39:19;;;;;;;3.08;1.75;;;;;;;;;;5076359;28;20024;-85
2023/10/24 11:41:44;;;;;;;3.70;1.70;;;;;;;;;;5073568;28;20042;-85
2023/10/24 11:44:15;;;;;;;3.13;1.63;;;;;;;;;;5094271;28;20051;-85
2023/10/24 11:46:42;;;;;;;5.15;1.10;;;;;;;;;;5075731;28;20071;-85
2023/10/24 11:49:07;;;;;;;2.53;1.25;;;;;;;;;;5090405;28;20067;-84
2023/10/24 11:51:33;;;;;;;5.70;1.65;;;;;;;;;;5087412;28;20051;-84
2023/10/24 11:54:03;;;;;;;1.00;0.90;;;;;;;;;;5088137;28;20037;-85
2023/10/24 11:56:29;;;;;;;;;;;;;;;;;;5068502;28;20110;-86
2023/10/24 11:58:56;;;;;;;6.80;1.45;;;;;;;;;;5088053;28;19921;-84
2023/10/24 12:01:27;;;;;;;13.40;1.08;;;;;;;;;;5071053;28;20027;-85
2023/10/24 12:03:58;;;;;;;4.03;1.10;;;;;;;;;;5086068;28;20051;-85
2023/10/24 12:06:28;;;;;;;1.20;1.00;;;;;;;;;;5088908;28;20036;-86
2023/10/24 12:08:54;;;;;;;6.03;1.73;;;;;;;;;;5087046;28;20464;-85
2023/10/24 12:11:21;;;;;;;5.78;1.55;;;;;;;;;;5090591;28;20046;-85
2023/10/24 12:13:47;;;;;;;4.40;1.40;;;;;;;;;;5070650;28;20027;-84
2023/10/24 12:16:12;;;;;;;1.02;0.93;;;;;;;;;;5091283;28;20028;-85
2023/10/24 12:18:38;;;;;;;3.35;1.73;;;;;;;;;;5090782;28;20027;-85
2023/10/24 12:21:04;;;;;;;5.95;1.75;;;;;;;;;;5088936;28;20472;-85
2023/10/24 12:23:30;;;;;;;2.60;1.33;;;;;;;;;;5090779;28;20471;-85
2023/10/24 12:25:55;;;;;;;1.67;1.20;;;;;;;;;;5088750;28;20081;-86
2023/10/24 12:28:21;;;;;;;2.85;1.15;;;;;;;;;;5071687;28;20115;-85
2023/10/24 12:30:46;;;;;;;5.25;1.45;;;;;;;;;;5089711;28;20049;-84
2023/10/24 12:33:15;;;;;;;6.10;1.83;;;;;;;;;;5088680;28;20056;-85
2023/10/24 12:35:40;;;;;;;2.78;1.35;;;;;;;;;;5090535;28;20027;-84
2023/10/24 12:38:06;;;;;;;4.43;1.83;;;;;;;;;;5088417;28;20019;-84
2023/10/24 12:40:31;;;;;;;3.55;1.67;;;;;;;;;;5088110;28;20057;-85
2023/10/24 12:42:57;;;;;;;4.90;1.30;;;;;;;;;;5083630;28;20020;-85
2023/10/24 12:45:22;;;;;;;2.25;1.33;;;;;;;;;;5089292;28;20024;-84
2023/10/24 12:47:49;;;;;;;1.63;0.98;;;;;;;;;;5087839;28;20066;-85
2023/10/24 12:50:14;;;;;;;8.75;1.67;;;;;;;;;;5090545;28;20468;-85
2023/10/24 12:52:40;;;;;;;3.45;1.95;;;;;;;;;;5070163;28;20039;-81
2023/10/24 12:55:06;;;;;;;2.47;1.23;;;;;;;;;;5088110;28;20024;-82
2023/10/24 12:57:31;;;;;;;0.95;0.40;;;;;;;;;;5070006;28;20027;-83
2023/10/24 12:59:57;;;;;;;5.85;1.02;;;;;;;;;;5067347;28;20028;-83
2023/10/24 13:02:22;;;;;;;1.05;0.88;;;;;;;;;;5091249;28;20077;-85
2023/10/24 13:04:48;;;;;;;1.52;1.00;;;;;;;;;;5088196;28;20024;-84
2023/10/24 13:07:17;;;;;;;6.10;0.82;;;;;;;;;;5086015;28;20038;-83
2023/10/24 13:09:43;;;;;;;4.13;1.05;;;;;;;;;;5068728;28;20059;-84
2023/10/24 13:12:09;;;;;;;2.53;1.50;;;;;;;;;;5066935;28;20029;-86
2023/10/24 13:14:35;;;;;;;0.82;0.80;;;;;;;;;;5068754;28;20495;-84
2023/10/24 13:17:01;;;;;;;6.38;0.98;;;;;;;;;;5068891;28;20029;-83
2023/10/24 13:19:27;;;;;;;5.63;1.48;;;;;;;;;;5069397;28;20376;-84
2023/10/24 13:21:53;;;;;;;5.38;1.20;;;;;;;;;;5070131;28;20020;-84
2023/10/24 13:24:19;;;;;;;0.70;0.63;;;;;;;;;;5068033;28;20081;-85
2023/10/24 13:26:47;;;;;;;2.20;0.88;;;;;;;;;;5068342;28;20657;-84
2023/10/24 13:29:13;;;;;;;2.08;0.90;;;;;;;;;;5069976;28;20025;-80
2023/10/24 13:31:42;;;;;;;1.17;1.00;;;;;;;;;;5067318;28;20102;-84
2023/10/24 13:34:08;;;;;;;4.03;0.80;;;;;;;;;;5071260;28;20372;-84
2023/10/24 13:36:34;;;;;;;1.58;1.00;;;;;;;;;;5073150;28;20020;-83
2023/10/24 13:39:00;;;;;;;5.75;1.63;;;;;;;;;;5071739;28;20032;-84
2023/10/24 13:41:26;;;;;;;1.88;1.30;;;;;;;;;;5070356;28;20040;-86
2023/10/24 13:43:51;;;;;;;1.33;1.00;;;;;;;;;;5074009;28;20380;-83
2023/10/24 13:46:16;;;;;;;2.78;1.50;;;;;;;;;;5071752;28;20036;-81
2023/10/24 13:48:42;;;;;;;2.72;1.73;;;;;;;;;;5070832;28;20396;-81
2023/10/24 13:51:07;;;;;;;2.05;1.33;;;;;;;;;;5072601;28;20488;-82
2023/10/24 13:53:33;;;;;;;5.10;1.42;;;;;;;;;;5072933;28;20028;-85
2023/10/24 13:55:58;;;;;;;4.05;1.05;;;;;;;;;;5071003;28;21425;-82
2023/10/24 13:58:24;;;;;;;1.23;0.85;;;;;;;;;;5068579;28;20659;-84
2023/10/24 14:00:51;;;;;;;2.72;1.25;;;;;;;;;;5069559;28;20031;-83
2023/10/24 14:03:16;;;;;;;4.43;1.65;;;;;;;;;;5069945;28;20032;-84
2023/10/24 14:05:44;;;;;;;2.03;1.00;;;;;;;;;;5071765;28;20035;-84
2023/10/24 14:08:09;;;;;;;4.40;1.17;;;;;;;;;;5070527;28;20480;-84
2023/10/24 14:10:35;;;;;;;3.80;1.25;;;;;;;;;;5059714;28;20055;-84
2023/10/24 14:13:01;;;;;;;1.17;1.00;;;;;;;;;;5049496;28;20104;-85
2023/10/24 14:15:26;;;;;;;2.65;1.45;;;;;;;;;;5051517;28;20120;-84
2023/10/24 14:17:51;;;;;;;2.90;0.95;;;;;;;;;;5051228;28;20032;-84
2023/10/24 14:20:17;;;;;;;3.63;1.55;;;;;;;;;;5052805;28;20112;-84
2023/10/24 14:22:45;;;;;;;1.98;0.95;;;;;;;;;;5053023;28;20465;-83
2023/10/24 14:25:10;;;;;;;3.42;1.90;;;;;;;;;;5051336;28;20102;-84
2023/10/24 14:27:36;;;;;;;3.35;1.95;;;;;;;;;;5051216;28;20025;-85
2023/10/24 14:30:01;;;;;;;1.70;1.08;;;;;;;;;;5051866;28;20078;-84
2023/10/24 14:32:27;;;;;;;3.92;2.17;;;;;;;;;;5052184;28;20033;-84
2023/10/24 14:34:52;;;;;;;9.73;3.03;;;;;;;;;;5053370;28;20032;-84
2023/10/24 14:37:18;;;;;;;8.20;2.95;;;;;;;;;;5051352;28;20393;-84
2023/10/24 14:39:43;;;;;;;9.20;2.35;;;;;;;;;;5051279;28;20032;-85
2023/10/24 14:42:08;;;;;;;7.75;2.63;;;;;;;;;;5052573;28;20032;-84
2023/10/24 14:44:34;;;;;;;7.95;3.20;;;;;;;;;;5052396;28;20029;-84
2023/10/24 14:46:59;;;;;;;5.22;2.83;;;;;;;;;;5051631;28;20033;-84
2023/10/24 14:49:25;;;;;;;3.67;1.30;;;;;;;;;;5053176;28;20067;-85
2023/10/24 14:51:50;;;;;;;2.78;1.10;;;;;;;;;;5053486;28;20021;-84
2023/10/24 14:54:16;;;;;;;5.68;1.45;;;;;;;;;;5052795;28;20040;-84
2023/10/24 14:56:42;;;;;;;1.55;1.30;;;;;;;;;;5050055;28;20033;-85
2023/10/24 14:59:07;;;;;;;4.85;1.95;;;;;;;;;;5053258;28;20036;-83
2023/10/24 15:01:33;;;;;;;1.52;1.15;;;;;;;;;;5052515;28;20029;-81
2023/10/24 15:03:58;;;;;;;9.68;1.60;;;;;;;;;;5050832;28;20845;-84
2023/10/24 15:06:27;;;;;;;2.00;0.98;;;;;;;;;;5051212;28;20987;-82
2023/10/24 15:08:52;;;;;;;3.25;0.95;;;;;;;;;;5049903;28;20542;-84
2023/10/24 15:11:18;;;;;;;7.68;1.17;;;;;;;;;;5068343;28;20048;-84
2023/10/24 15:13:43;;;;;;;5.53;2.15;;;;;;;;;;5070505;28;20032;-84
2023/10/24 15:16:09;;;;;;;1.48;0.85;;;;;;;;;;5070545;28;20426;-85
2023/10/24 15:18:34;;;;;;;1.33;1.20;;;;;;;;;;5070334;28;20368;-84
2023/10/24 15:21:00;;;;;;;2.78;0.80;;;;;;;;;;5070578;28;20020;-85
2023/10/24 15:23:25;;;;;;;1.85;1.02;;;;;;;;;;5069278;28;20632;-84
2023/10/24 15:25:51;;;;;;;2.65;1.17;;;;;;;;;;5068042;28;20035;-83
2023/10/24 15:28:16;;;;;;;1.75;0.75;;;;;;;;;;5073814;28;20036;-83
2023/10/24 15:30:42;;;;;;;4.50;1.55;;;;;;;;;;5069416;28;20021;-83
2023/10/24 15:33:08;;;;;;;3.80;1.25;;;;;;;;;;5069654;28;20025;-84
2023/10/24 15:35:33;;;;;;;3.15;1.27;;;;;;;;;;5069617;28;20041;-83
2023/10/24 15:37:59;;;;;;;3.38;0.82;;;;;;;;;;5068693;28;20036;-84
2023/10/24 15:40:26;;;;;;;2.08;1.52;;;;;;;;;;5069006;28;20028;-83
2023/10/24 15:42:51;;;;;;;3.95;1.25;;;;;;;;;;5068594;28;20105;-84
2023/10/24 15:45:16;;;;;;;0.50;0.43;;;;;;;;;;5072076;28;20131;-84
2023/10/24 15:47:42;;;;;;;3.83;0.88;;;;;;;;;;5068379;28;20376;-85
2023/10/24 15:50:08;;;;;;;6.78;3.13;;;;;;;;;;5071567;28;20020;-86
2023/10/24 15:52:33;;;;;;;2.92;0.85;;;;;;;;;;5067734;28;20021;-84
2023/10/24 15:54:59;;;;;;;1.02;0.93;;;;;;;;;;5070198;28;20537;-84
2023/10/24 15:57:24;;;;;;;1.05;0.90;;;;;;;;;;5069320;28;20028;-85
2023/10/24 15:59:51;;;;;;;2.30;0.95;;;;;;;;;;5068488;28;20025;-84
2023/10/24 16:02:17;;;;;;;1.20;1.10;;;;;;;;;;5069253;28;20437;-85
2023/10/24 16:04:43;;;;;;;2.45;0.98;;;;;;;;;;5069739;28;20092;-85
2023/10/24 16:07:08;;;;;;;1.25;0.70;;;;;;;;;;5071311;28;20364;-81
2023/10/24 16:09:33;;;;;;;0.95;0.73;;;;;;;;;;5069123;28;20066;-83
2023/10/24 16:11:59;;;;;;;1.90;1.13;;;;;;;;;;5088609;28;20487;-83
2023/10/24 16:14:24;;;;;;;4.70;1.35;;;;;;;;;;5070802;28;20032;-83
2023/10/24 16:16:50;;;;;;;7.10;1.52;;;;;;;;;;5072700;28;20035;-84
2023/10/24 16:19:15;;;;;;;6.30;1.02;;;;;;;;;;5071271;28;20028;-83
2023/10/24 16:21:40;;;;;;;3.22;1.20;;;;;;;;;;5070783;28;20058;-83
2023/10/24 16:24:06;;;;;;;3.00;1.00;;;;;;;;;;5071496;28;20468;-83
2023/10/24 16:26:32;;;;;;;1.23;0.75;;;;;;;;;;5070750;28;20024;-84
2023/10/24 16:28:57;;;;;;;2.70;1.13;;;;;;;;;;5085553;28;20028;-84
2023/10/24 16:31:23;;;;;;;2.08;1.25;;;;;;;;;;5089516;28;20024;-82
2023/10/24 16:33:48;;;;;;;5.03;0.80;;;;;;;;;;5089079;28;20103;-83
2023/10/24 16:36:14;;;;;;;3.47;1.23;;;;;;;;;;5090216;28;20023;-83
2023/10/24 16:38:39;;;;;;;2.45;0.52;;;;;;;;;;5072149;28;20475;-82
2023/10/24 16:41:05;;;;;;;0.90;0.50;;;;;;;;;;5087589;28;20063;-82
